Upper Nyack, New York
Current Conditions -  °F | °C
As of 2:56 PM on Wednesday 26 Nov 2014 (Local Time) from KHPN Reporting Station
Light Rain Light Rain  
Wind Chill: 26°   Ceiling: 800
Heat Index: 34°   Visibility: 2mi
Dew Point: 32°   Wind: 10mph
Humidity: 92%   Direction: 30°NNE
Pressure: 29.84"   Gusts: NA
Location:  41.0938°N, 73.9254°W
Report Text: KHPN 261956Z 03009KT 2SM -RA BR SCT004 OVC008 01/00 A2984 RMK AO2 RAB19SNE19 PRESFR SLP112 P0009 T00110000
Loading
Personal Weather Stations






























Interactive Weather Map New forecast layout! Learn more

10-Day Weather Forecast

Advertisements
Track Severe Weather on mobile